sensor_id;sensor_type;location;lat;lon;timestamp;P1;durP1;ratioP1;P2;durP2;ratioP2
31438;SDS011;18062;48.872;9.220;2022-09-09T00:03:45;7.80;;;7.50;;
31438;SDS011;18062;48.872;9.220;2022-09-09T00:06:24;9.30;;;8.80;;
31438;SDS011;18062;48.872;9.220;2022-09-09T00:11:34;8.40;;;8.00;;
31438;SDS011;18062;48.872;9.220;2022-09-09T00:14:02;8.70;;;8.30;;
31438;SDS011;18062;48.872;9.220;2022-09-09T00:16:35;9.27;;;8.87;;
31438;SDS011;18062;48.872;9.220;2022-09-09T00:19:18;6.27;;;5.97;;
31438;SDS011;18062;48.872;9.220;2022-09-09T00:22:00;9.00;;;8.33;;
31438;SDS011;18062;48.872;9.220;2022-09-09T00:27:46;8.07;;;7.73;;
31438;SDS011;18062;48.872;9.220;2022-09-09T00:32:39;10.23;;;9.63;;
31438;SDS011;18062;48.872;9.220;2022-09-09T00:35:18;5.93;;;5.63;;
31438;SDS011;18062;48.872;9.220;2022-09-09T00:37:48;8.70;;;8.30;;
31438;SDS011;18062;48.872;9.220;2022-09-09T00:40:24;5.43;;;5.23;;
31438;SDS011;18062;48.872;9.220;2022-09-09T00:43:00;7.70;;;7.30;;
31438;SDS011;18062;48.872;9.220;2022-09-09T00:48:11;8.23;;;7.70;;
31438;SDS011;18062;48.872;9.220;2022-09-09T00:50:46;9.17;;;8.70;;
31438;SDS011;18062;48.872;9.220;2022-09-09T00:58:25;7.57;;;7.17;;
31438;SDS011;18062;48.872;9.220;2022-09-09T01:00:55;6.47;;;6.20;;
31438;SDS011;18062;48.872;9.220;2022-09-09T01:06:11;9.43;;;9.03;;
31438;SDS011;18062;48.872;9.220;2022-09-09T01:11:05;6.13;;;5.90;;
31438;SDS011;18062;48.872;9.220;2022-09-09T01:13:33;8.70;;;8.23;;
31438;SDS011;18062;48.872;9.220;2022-09-09T01:16:01;4.13;;;3.93;;
31438;SDS011;18062;48.872;9.220;2022-09-09T01:18:28;6.90;;;6.60;;
31438;SDS011;18062;48.872;9.220;2022-09-09T01:20:58;6.93;;;6.63;;
31438;SDS011;18062;48.872;9.220;2022-09-09T01:23:29;10.87;;;10.40;;
31438;SDS011;18062;48.872;9.220;2022-09-09T01:28:39;9.13;;;8.70;;
31438;SDS011;18062;48.872;9.220;2022-09-09T01:31:06;8.20;;;7.80;;
31438;SDS011;18062;48.872;9.220;2022-09-09T01:33:33;7.33;;;6.93;;
31438;SDS011;18062;48.872;9.220;2022-09-09T01:36:00;8.13;;;7.73;;
31438;SDS011;18062;48.872;9.220;2022-09-09T01:38:28;7.67;;;7.30;;
31438;SDS011;18062;48.872;9.220;2022-09-09T01:40:55;9.53;;;9.07;;
31438;SDS011;18062;48.872;9.220;2022-09-09T01:43:23;11.97;;;11.47;;
31438;SDS011;18062;48.872;9.220;2022-09-09T01:45:51;7.67;;;7.37;;
31438;SDS011;18062;48.872;9.220;2022-09-09T01:48:18;13.00;;;12.43;;
31438;SDS011;18062;48.872;9.220;2022-09-09T01:50:44;8.37;;;7.97;;
31438;SDS011;18062;48.872;9.220;2022-09-09T01:53:10;10.73;;;10.23;;
31438;SDS011;18062;48.872;9.220;2022-09-09T01:55:40;9.30;;;8.80;;
31438;SDS011;18062;48.872;9.220;2022-09-09T02:00:45;6.73;;;6.47;;
31438;SDS011;18062;48.872;9.220;2022-09-09T02:03:25;6.47;;;6.17;;
31438;SDS011;18062;48.872;9.220;2022-09-09T02:06:05;7.67;;;7.33;;
31438;SDS011;18062;48.872;9.220;2022-09-09T02:08:42;12.30;;;11.77;;
31438;SDS011;18062;48.872;9.220;2022-09-09T02:11:19;8.33;;;8.00;;
31438;SDS011;18062;48.872;9.220;2022-09-09T02:13:46;8.30;;;7.90;;
31438;SDS011;18062;48.872;9.220;2022-09-09T02:21:11;11.57;;;11.07;;
31438;SDS011;18062;48.872;9.220;2022-09-09T02:23:39;9.10;;;8.70;;
31438;SDS011;18062;48.872;9.220;2022-09-09T02:26:06;9.10;;;8.70;;
31438;SDS011;18062;48.872;9.220;2022-09-09T02:28:32;8.53;;;8.20;;
31438;SDS011;18062;48.872;9.220;2022-09-09T02:31:00;8.33;;;7.93;;
31438;SDS011;18062;48.872;9.220;2022-09-09T02:33:28;9.20;;;8.80;;
31438;SDS011;18062;48.872;9.220;2022-09-09T02:35:54;10.80;;;10.30;;
31438;SDS011;18062;48.872;9.220;2022-09-09T02:38:26;14.03;;;13.43;;
31438;SDS011;18062;48.872;9.220;2022-09-09T02:40:54;15.67;;;15.03;;
31438;SDS011;18062;48.872;9.220;2022-09-09T02:43:20;12.97;;;12.37;;
31438;SDS011;18062;48.872;9.220;2022-09-09T02:48:46;16.67;;;15.93;;
31438;SDS011;18062;48.872;9.220;2022-09-09T02:51:27;20.07;;;19.20;;
31438;SDS011;18062;48.872;9.220;2022-09-09T02:56:42;16.37;;;15.67;;
31438;SDS011;18062;48.872;9.220;2022-09-09T02:59:11;14.20;;;13.53;;
31438;SDS011;18062;48.872;9.220;2022-09-09T03:01:37;14.47;;;13.87;;
31438;SDS011;18062;48.872;9.220;2022-09-09T03:04:05;20.00;;;19.13;;
31438;SDS011;18062;48.872;9.220;2022-09-09T03:06:31;16.30;;;15.57;;
31438;SDS011;18062;48.872;9.220;2022-09-09T03:08:57;15.70;;;15.03;;
31438;SDS011;18062;48.872;9.220;2022-09-09T03:11:25;19.33;;;18.47;;
31438;SDS011;18062;48.872;9.220;2022-09-09T03:13:52;16.03;;;15.33;;
31438;SDS011;18062;48.872;9.220;2022-09-09T03:16:18;15.13;;;14.43;;
31438;SDS011;18062;48.872;9.220;2022-09-09T03:18:44;14.60;;;14.00;;
31438;SDS011;18062;48.872;9.220;2022-09-09T03:21:10;15.50;;;14.83;;
31438;SDS011;18062;48.872;9.220;2022-09-09T03:23:36;14.50;;;13.80;;
31438;SDS011;18062;48.872;9.220;2022-09-09T03:26:02;16.13;;;15.40;;
31438;SDS011;18062;48.872;9.220;2022-09-09T03:28:28;15.40;;;14.67;;
31438;SDS011;18062;48.872;9.220;2022-09-09T03:31:01;15.00;;;14.33;;
31438;SDS011;18062;48.872;9.220;2022-09-09T03:33:28;21.17;;;20.20;;
31438;SDS011;18062;48.872;9.220;2022-09-09T03:35:54;19.00;;;18.20;;
31438;SDS011;18062;48.872;9.220;2022-09-09T03:38:22;19.40;;;18.53;;
31438;SDS011;18062;48.872;9.220;2022-09-09T03:40:51;21.17;;;20.23;;
31438;SDS011;18062;48.872;9.220;2022-09-09T03:43:20;17.93;;;17.07;;
31438;SDS011;18062;48.872;9.220;2022-09-09T03:45:47;18.77;;;17.93;;
31438;SDS011;18062;48.872;9.220;2022-09-09T03:48:13;16.63;;;15.90;;
31438;SDS011;18062;48.872;9.220;2022-09-09T03:50:50;14.87;;;14.20;;
31438;SDS011;18062;48.872;9.220;2022-09-09T03:53:17;13.73;;;13.13;;
31438;SDS011;18062;48.872;9.220;2022-09-09T03:55:51;13.93;;;13.33;;
31438;SDS011;18062;48.872;9.220;2022-09-09T03:58:19;16.00;;;15.27;;
31438;SDS011;18062;48.872;9.220;2022-09-09T04:00:55;12.00;;;11.37;;
31438;SDS011;18062;48.872;9.220;2022-09-09T04:03:22;9.40;;;8.93;;
31438;SDS011;18062;48.872;9.220;2022-09-09T04:05:50;11.50;;;11.03;;
31438;SDS011;18062;48.872;9.220;2022-09-09T04:08:16;10.67;;;10.03;;
31438;SDS011;18062;48.872;9.220;2022-09-09T04:10:44;8.93;;;8.43;;
31438;SDS011;18062;48.872;9.220;2022-09-09T04:13:11;12.73;;;12.10;;
31438;SDS011;18062;48.872;9.220;2022-09-09T04:15:40;10.20;;;9.80;;
31438;SDS011;18062;48.872;9.220;2022-09-09T04:18:06;8.77;;;8.40;;
31438;SDS011;18062;48.872;9.220;2022-09-09T04:20:32;10.57;;;10.07;;
31438;SDS011;18062;48.872;9.220;2022-09-09T04:22:58;7.97;;;7.63;;
31438;SDS011;18062;48.872;9.220;2022-09-09T04:25:24;9.57;;;9.13;;
31438;SDS011;18062;48.872;9.220;2022-09-09T04:27:54;10.13;;;9.70;;
31438;SDS011;18062;48.872;9.220;2022-09-09T04:30:20;8.90;;;8.50;;
31438;SDS011;18062;48.872;9.220;2022-09-09T04:32:46;8.37;;;8.00;;
31438;SDS011;18062;48.872;9.220;2022-09-09T04:35:12;7.47;;;7.10;;
31438;SDS011;18062;48.872;9.220;2022-09-09T04:37:38;10.97;;;10.50;;
31438;SDS011;18062;48.872;9.220;2022-09-09T04:40:05;9.17;;;8.77;;
31438;SDS011;18062;48.872;9.220;2022-09-09T04:42:34;7.83;;;7.53;;
31438;SDS011;18062;48.872;9.220;2022-09-09T04:45:00;7.93;;;7.53;;
31438;SDS011;18062;48.872;9.220;2022-09-09T04:47:26;8.83;;;8.43;;
31438;SDS011;18062;48.872;9.220;2022-09-09T04:49:52;12.47;;;11.93;;
31438;SDS011;18062;48.872;9.220;2022-09-09T04:52:19;9.40;;;9.00;;
31438;SDS011;18062;48.872;9.220;2022-09-09T04:54:45;11.03;;;10.57;;
31438;SDS011;18062;48.872;9.220;2022-09-09T04:57:11;8.03;;;7.73;;
31438;SDS011;18062;48.872;9.220;2022-09-09T04:59:37;7.87;;;7.57;;
31438;SDS011;18062;48.872;9.220;2022-09-09T05:02:04;9.13;;;8.73;;
31438;SDS011;18062;48.872;9.220;2022-09-09T05:04:30;11.73;;;11.23;;
31438;SDS011;18062;48.872;9.220;2022-09-09T05:06:58;12.40;;;11.83;;
31438;SDS011;18062;48.872;9.220;2022-09-09T05:09:24;8.70;;;8.33;;
31438;SDS011;18062;48.872;9.220;2022-09-09T05:11:50;8.57;;;8.20;;
31438;SDS011;18062;48.872;9.220;2022-09-09T05:14:16;9.77;;;9.33;;
31438;SDS011;18062;48.872;9.220;2022-09-09T05:16:44;9.27;;;8.90;;
31438;SDS011;18062;48.872;9.220;2022-09-09T05:19:10;9.67;;;9.27;;
31438;SDS011;18062;48.872;9.220;2022-09-09T05:21:36;10.63;;;10.13;;
31438;SDS011;18062;48.872;9.220;2022-09-09T05:24:02;9.83;;;9.40;;
31438;SDS011;18062;48.872;9.220;2022-09-09T05:26:28;8.43;;;8.03;;
31438;SDS011;18062;48.872;9.220;2022-09-09T05:28:54;7.73;;;7.20;;
31438;SDS011;18062;48.872;9.220;2022-09-09T05:31:21;5.23;;;5.03;;
31438;SDS011;18062;48.872;9.220;2022-09-09T05:33:47;9.33;;;8.93;;
31438;SDS011;18062;48.872;9.220;2022-09-09T05:36:18;7.30;;;7.00;;
31438;SDS011;18062;48.872;9.220;2022-09-09T05:38:45;6.80;;;6.50;;
31438;SDS011;18062;48.872;9.220;2022-09-09T05:41:11;5.23;;;5.00;;
31438;SDS011;18062;48.872;9.220;2022-09-09T05:43:38;5.67;;;5.47;;
31438;SDS011;18062;48.872;9.220;2022-09-09T05:46:05;6.53;;;6.23;;
31438;SDS011;18062;48.872;9.220;2022-09-09T05:48:33;4.43;;;4.20;;
31438;SDS011;18062;48.872;9.220;2022-09-09T05:51:00;5.50;;;5.30;;
31438;SDS011;18062;48.872;9.220;2022-09-09T05:53:26;6.80;;;6.50;;
31438;SDS011;18062;48.872;9.220;2022-09-09T05:56:00;5.63;;;5.33;;
31438;SDS011;18062;48.872;9.220;2022-09-09T05:58:28;5.20;;;5.00;;
31438;SDS011;18062;48.872;9.220;2022-09-09T06:01:00;5.10;;;4.90;;
31438;SDS011;18062;48.872;9.220;2022-09-09T06:03:26;4.80;;;4.60;;
31438;SDS011;18062;48.872;9.220;2022-09-09T06:06:02;4.20;;;4.03;;
31438;SDS011;18062;48.872;9.220;2022-09-09T06:08:30;9.60;;;9.20;;
31438;SDS011;18062;48.872;9.220;2022-09-09T06:11:03;5.57;;;5.27;;
31438;SDS011;18062;48.872;9.220;2022-09-09T06:13:29;3.73;;;3.63;;
31438;SDS011;18062;48.872;9.220;2022-09-09T06:15:56;4.20;;;4.00;;
31438;SDS011;18062;48.872;9.220;2022-09-09T06:18:23;7.37;;;7.07;;
31438;SDS011;18062;48.872;9.220;2022-09-09T06:20:53;3.17;;;3.07;;
31438;SDS011;18062;48.872;9.220;2022-09-09T06:23:19;3.40;;;3.20;;
31438;SDS011;18062;48.872;9.220;2022-09-09T06:25:45;4.27;;;4.07;;
31438;SDS011;18062;48.872;9.220;2022-09-09T06:28:11;5.20;;;5.00;;
31438;SDS011;18062;48.872;9.220;2022-09-09T06:30:38;8.67;;;8.10;;
31438;SDS011;18062;48.872;9.220;2022-09-09T06:33:05;7.60;;;7.20;;
31438;SDS011;18062;48.872;9.220;2022-09-09T06:35:31;3.40;;;3.30;;
31438;SDS011;18062;48.872;9.220;2022-09-09T06:37:57;7.67;;;7.27;;
31438;SDS011;18062;48.872;9.220;2022-09-09T06:40:23;6.63;;;6.33;;
31438;SDS011;18062;48.872;9.220;2022-09-09T06:42:49;4.23;;;4.07;;
31438;SDS011;18062;48.872;9.220;2022-09-09T06:45:16;5.07;;;4.87;;
31438;SDS011;18062;48.872;9.220;2022-09-09T06:47:42;4.67;;;4.40;;
31438;SDS011;18062;48.872;9.220;2022-09-09T06:50:08;6.63;;;6.33;;
31438;SDS011;18062;48.872;9.220;2022-09-09T06:52:35;6.10;;;5.73;;
31438;SDS011;18062;48.872;9.220;2022-09-09T06:55:02;6.83;;;6.43;;
31438;SDS011;18062;48.872;9.220;2022-09-09T06:57:28;4.60;;;4.40;;
31438;SDS011;18062;48.872;9.220;2022-09-09T06:59:54;4.23;;;4.03;;
31438;SDS011;18062;48.872;9.220;2022-09-09T07:02:21;4.40;;;4.20;;
31438;SDS011;18062;48.872;9.220;2022-09-09T07:04:47;7.60;;;7.27;;
31438;SDS011;18062;48.872;9.220;2022-09-09T07:07:15;4.07;;;3.87;;
31438;SDS011;18062;48.872;9.220;2022-09-09T07:09:42;4.50;;;4.30;;
31438;SDS011;18062;48.872;9.220;2022-09-09T07:12:10;8.87;;;8.40;;
31438;SDS011;18062;48.872;9.220;2022-09-09T07:14:37;6.20;;;5.90;;
31438;SDS011;18062;48.872;9.220;2022-09-09T07:17:04;6.27;;;5.97;;
31438;SDS011;18062;48.872;9.220;2022-09-09T07:19:30;7.30;;;7.00;;
31438;SDS011;18062;48.872;9.220;2022-09-09T07:21:56;5.80;;;5.43;;
31438;SDS011;18062;48.872;9.220;2022-09-09T07:24:22;8.33;;;7.90;;
31438;SDS011;18062;48.872;9.220;2022-09-09T07:26:48;4.97;;;4.73;;
31438;SDS011;18062;48.872;9.220;2022-09-09T07:29:14;6.87;;;6.57;;
31438;SDS011;18062;48.872;9.220;2022-09-09T07:31:40;7.50;;;7.13;;
31438;SDS011;18062;48.872;9.220;2022-09-09T07:34:07;9.30;;;8.70;;
31438;SDS011;18062;48.872;9.220;2022-09-09T07:36:34;10.17;;;9.50;;
31438;SDS011;18062;48.872;9.220;2022-09-09T07:39:02;6.70;;;6.40;;
31438;SDS011;18062;48.872;9.220;2022-09-09T07:41:38;8.70;;;8.30;;
31438;SDS011;18062;48.872;9.220;2022-09-09T07:44:09;5.17;;;4.97;;
31438;SDS011;18062;48.872;9.220;2022-09-09T07:46:36;12.30;;;11.73;;
31438;SDS011;18062;48.872;9.220;2022-09-09T07:49:03;7.33;;;6.70;;
31438;SDS011;18062;48.872;9.220;2022-09-09T07:51:30;9.27;;;8.77;;
31438;SDS011;18062;48.872;9.220;2022-09-09T07:53:58;7.60;;;7.27;;
31438;SDS011;18062;48.872;9.220;2022-09-09T07:56:25;12.30;;;11.73;;
31438;SDS011;18062;48.872;9.220;2022-09-09T07:58:51;8.87;;;8.43;;
31438;SDS011;18062;48.872;9.220;2022-09-09T08:01:19;10.20;;;9.63;;
31438;SDS011;18062;48.872;9.220;2022-09-09T08:03:46;11.67;;;11.10;;
31438;SDS011;18062;48.872;9.220;2022-09-09T08:06:13;8.50;;;8.10;;
31438;SDS011;18062;48.872;9.220;2022-09-09T08:08:39;7.37;;;7.03;;
31438;SDS011;18062;48.872;9.220;2022-09-09T08:11:08;8.30;;;7.93;;
31438;SDS011;18062;48.872;9.220;2022-09-09T08:13:41;7.47;;;7.10;;
31438;SDS011;18062;48.872;9.220;2022-09-09T08:16:08;8.87;;;8.50;;
31438;SDS011;18062;48.872;9.220;2022-09-09T08:18:35;9.67;;;9.17;;
31438;SDS011;18062;48.872;9.220;2022-09-09T08:21:05;9.93;;;9.40;;
31438;SDS011;18062;48.872;9.220;2022-09-09T08:23:31;11.60;;;10.83;;
31438;SDS011;18062;48.872;9.220;2022-09-09T08:26:19;11.00;;;10.33;;
31438;SDS011;18062;48.872;9.220;2022-09-09T08:28:48;6.00;;;5.70;;
31438;SDS011;18062;48.872;9.220;2022-09-09T08:31:17;11.07;;;10.53;;
31438;SDS011;18062;48.872;9.220;2022-09-09T08:33:43;10.23;;;9.70;;
31438;SDS011;18062;48.872;9.220;2022-09-09T08:36:19;11.00;;;10.45;;
31438;SDS011;18062;48.872;9.220;2022-09-09T08:38:47;16.20;;;15.40;;
31438;SDS011;18062;48.872;9.220;2022-09-09T08:43:41;11.48;;;10.93;;
31438;SDS011;18062;48.872;9.220;2022-09-09T08:46:15;14.75;;;13.95;;
31438;SDS011;18062;48.872;9.220;2022-09-09T08:48:54;26.15;;;24.60;;
31438;SDS011;18062;48.872;9.220;2022-09-09T08:51:23;18.50;;;17.30;;
31438;SDS011;18062;48.872;9.220;2022-09-09T08:53:51;14.45;;;13.73;;
31438;SDS011;18062;48.872;9.220;2022-09-09T08:56:27;23.48;;;22.25;;
31438;SDS011;18062;48.872;9.220;2022-09-09T08:58:54;12.82;;;12.10;;
31438;SDS011;18062;48.872;9.220;2022-09-09T09:03:57;14.67;;;13.73;;
31438;SDS011;18062;48.872;9.220;2022-09-09T09:09:05;13.80;;;13.00;;
31438;SDS011;18062;48.872;9.220;2022-09-09T09:11:36;11.60;;;10.93;;
31438;SDS011;18062;48.872;9.220;2022-09-09T09:14:07;16.88;;;15.93;;
31438;SDS011;18062;48.872;9.220;2022-09-09T09:19:16;21.65;;;20.42;;
31438;SDS011;18062;48.872;9.220;2022-09-09T09:21:54;12.63;;;11.95;;
31438;SDS011;18062;48.872;9.220;2022-09-09T09:24:29;14.30;;;13.35;;
31438;SDS011;18062;48.872;9.220;2022-09-09T09:26:57;21.95;;;20.70;;
31438;SDS011;18062;48.872;9.220;2022-09-09T09:29:26;19.13;;;18.13;;
31438;SDS011;18062;48.872;9.220;2022-09-09T09:31:53;23.30;;;22.05;;
31438;SDS011;18062;48.872;9.220;2022-09-09T09:34:23;22.73;;;21.48;;
31438;SDS011;18062;48.872;9.220;2022-09-09T09:36:59;18.75;;;17.65;;
31438;SDS011;18062;48.872;9.220;2022-09-09T09:39:30;27.77;;;26.23;;
31438;SDS011;18062;48.872;9.220;2022-09-09T09:41:56;20.98;;;19.90;;
31438;SDS011;18062;48.872;9.220;2022-09-09T09:44:29;15.45;;;14.60;;
31438;SDS011;18062;48.872;9.220;2022-09-09T09:47:08;20.58;;;19.45;;
31438;SDS011;18062;48.872;9.220;2022-09-09T09:49:37;23.77;;;22.42;;
31438;SDS011;18062;48.872;9.220;2022-09-09T09:52:04;18.23;;;17.38;;
31438;SDS011;18062;48.872;9.220;2022-09-09T09:54:32;24.20;;;22.92;;
31438;SDS011;18062;48.872;9.220;2022-09-09T09:57:11;22.73;;;21.52;;
31438;SDS011;18062;48.872;9.220;2022-09-09T09:59:37;52.17;;;49.65;;
31438;SDS011;18062;48.872;9.220;2022-09-09T10:02:21;61.47;;;57.90;;
31438;SDS011;18062;48.872;9.220;2022-09-09T10:07:47;92.28;;;86.78;;
31438;SDS011;18062;48.872;9.220;2022-09-09T10:10:20;87.93;;;82.63;;
31438;SDS011;18062;48.872;9.220;2022-09-09T10:12:53;125.72;;;118.20;;
31438;SDS011;18062;48.872;9.220;2022-09-09T10:15:34;145.15;;;136.50;;
31438;SDS011;18062;48.872;9.220;2022-09-09T10:20:46;162.25;;;152.60;;
31438;SDS011;18062;48.872;9.220;2022-09-09T10:31:49;242.13;;;225.65;;
31438;SDS011;18062;48.872;9.220;2022-09-09T10:36:48;348.23;;;323.58;;
31438;SDS011;18062;48.872;9.220;2022-09-09T10:42:08;250.65;;;234.35;;
31438;SDS011;18062;48.872;9.220;2022-09-09T10:52:21;255.00;;;238.10;;
31438;SDS011;18062;48.872;9.220;2022-09-09T10:58:10;240.15;;;223.13;;
31438;SDS011;18062;48.872;9.220;2022-09-09T11:00:34;161.32;;;150.38;;
31438;SDS011;18062;48.872;9.220;2022-09-09T11:03:02;137.40;;;128.63;;
31438;SDS011;18062;48.872;9.220;2022-09-09T11:10:36;52.15;;;48.85;;
31438;SDS011;18062;48.872;9.220;2022-09-09T11:13:05;45.17;;;42.75;;
31438;SDS011;18062;48.872;9.220;2022-09-09T11:15:36;44.78;;;41.90;;
31438;SDS011;18062;48.872;9.220;2022-09-09T11:18:04;39.42;;;37.15;;
31438;SDS011;18062;48.872;9.220;2022-09-09T11:20:31;30.58;;;28.63;;
31438;SDS011;18062;48.872;9.220;2022-09-09T11:23:02;27.33;;;25.77;;
31438;SDS011;18062;48.872;9.220;2022-09-09T11:25:45;16.77;;;15.82;;
31438;SDS011;18062;48.872;9.220;2022-09-09T11:33:30;8.73;;;8.30;;
31438;SDS011;18062;48.872;9.220;2022-09-09T11:38:45;7.33;;;7.03;;
31438;SDS011;18062;48.872;9.220;2022-09-09T11:41:12;7.03;;;6.73;;
31438;SDS011;18062;48.872;9.220;2022-09-09T11:43:43;6.00;;;5.80;;
31438;SDS011;18062;48.872;9.220;2022-09-09T11:46:09;4.83;;;4.63;;
31438;SDS011;18062;48.872;9.220;2022-09-09T11:48:37;5.13;;;4.93;;
31438;SDS011;18062;48.872;9.220;2022-09-09T11:51:24;2.63;;;2.53;;
31438;SDS011;18062;48.872;9.220;2022-09-09T11:53:52;3.10;;;3.00;;
31438;SDS011;18062;48.872;9.220;2022-09-09T11:59:33;6.00;;;5.80;;
31438;SDS011;18062;48.872;9.220;2022-09-09T12:01:43;7.40;;;7.10;;
31438;SDS011;18062;48.872;9.220;2022-09-09T12:06:44;7.43;;;7.10;;
31438;SDS011;18062;48.872;9.220;2022-09-09T12:11:52;8.60;;;8.07;;
31438;SDS011;18062;48.872;9.220;2022-09-09T12:14:19;7.47;;;7.15;;
31438;SDS011;18062;48.872;9.220;2022-09-09T12:16:46;13.25;;;12.60;;
31438;SDS011;18062;48.872;9.220;2022-09-09T12:21:41;7.95;;;7.63;;
31438;SDS011;18062;48.872;9.220;2022-09-09T12:24:11;13.25;;;12.60;;
31438;SDS011;18062;48.872;9.220;2022-09-09T12:26:52;15.48;;;14.38;;
31438;SDS011;18062;48.872;9.220;2022-09-09T12:29:39;33.58;;;31.52;;
31438;SDS011;18062;48.872;9.220;2022-09-09T12:32:11;41.67;;;38.88;;
31438;SDS011;18062;48.872;9.220;2022-09-09T12:39:42;137.25;;;128.02;;
31438;SDS011;18062;48.872;9.220;2022-09-09T12:42:17;251.50;;;233.40;;
31438;SDS011;18062;48.872;9.220;2022-09-09T12:44:54;450.05;;;415.77;;
31438;SDS011;18062;48.872;9.220;2022-09-09T12:47:21;333.70;;;309.48;;
31438;SDS011;18062;48.872;9.220;2022-09-09T12:49:48;281.27;;;260.67;;
31438;SDS011;18062;48.872;9.220;2022-09-09T12:52:58;402.25;;;372.48;;
31438;SDS011;18062;48.872;9.220;2022-09-09T12:55:05;507.20;;;471.67;;
31438;SDS011;18062;48.872;9.220;2022-09-09T12:57:37;544.88;;;505.52;;
31438;SDS011;18062;48.872;9.220;2022-09-09T13:00:14;607.22;;;563.10;;
31438;SDS011;18062;48.872;9.220;2022-09-09T13:02:51;434.60;;;402.70;;
31438;SDS011;18062;48.872;9.220;2022-09-09T13:05:19;259.98;;;240.93;;
31438;SDS011;18062;48.872;9.220;2022-09-09T13:07:45;134.80;;;126.05;;
31438;SDS011;18062;48.872;9.220;2022-09-09T13:10:12;113.38;;;105.80;;
31438;SDS011;18062;48.872;9.220;2022-09-09T13:12:39;96.90;;;91.03;;
31438;SDS011;18062;48.872;9.220;2022-09-09T13:15:10;103.57;;;97.75;;
31438;SDS011;18062;48.872;9.220;2022-09-09T13:17:38;70.35;;;66.15;;
31438;SDS011;18062;48.872;9.220;2022-09-09T13:20:06;75.15;;;70.63;;
31438;SDS011;18062;48.872;9.220;2022-09-09T13:22:37;50.60;;;47.55;;
31438;SDS011;18062;48.872;9.220;2022-09-09T13:25:51;84.40;;;79.20;;
31438;SDS011;18062;48.872;9.220;2022-09-09T13:30:32;187.93;;;175.02;;
31438;SDS011;18062;48.872;9.220;2022-09-09T13:33:02;206.35;;;191.07;;
31438;SDS011;18062;48.872;9.220;2022-09-09T13:35:29;336.65;;;312.20;;
31438;SDS011;18062;48.872;9.220;2022-09-09T13:37:55;338.50;;;314.48;;
31438;SDS011;18062;48.872;9.220;2022-09-09T13:40:22;374.23;;;347.33;;
31438;SDS011;18062;48.872;9.220;2022-09-09T13:42:50;433.30;;;401.38;;
31438;SDS011;18062;48.872;9.220;2022-09-09T13:45:21;598.65;;;556.58;;
31438;SDS011;18062;48.872;9.220;2022-09-09T13:47:48;621.85;;;579.22;;
31438;SDS011;18062;48.872;9.220;2022-09-09T13:50:25;645.08;;;600.92;;
31438;SDS011;18062;48.872;9.220;2022-09-09T13:52:52;634.70;;;591.20;;
31438;SDS011;18062;48.872;9.220;2022-09-09T13:55:19;717.15;;;665.33;;
31438;SDS011;18062;48.872;9.220;2022-09-09T14:00:22;630.72;;;581.88;;
31438;SDS011;18062;48.872;9.220;2022-09-09T14:02:49;510.20;;;470.60;;
31438;SDS011;18062;48.872;9.220;2022-09-09T14:05:15;385.67;;;357.08;;
31438;SDS011;18062;48.872;9.220;2022-09-09T14:07:42;374.80;;;346.92;;
31438;SDS011;18062;48.872;9.220;2022-09-09T14:10:09;497.33;;;460.17;;
31438;SDS011;18062;48.872;9.220;2022-09-09T14:12:35;585.80;;;539.47;;
31438;SDS011;18062;48.872;9.220;2022-09-09T14:15:01;645.95;;;601.17;;
31438;SDS011;18062;48.872;9.220;2022-09-09T14:17:28;661.55;;;617.47;;
31438;SDS011;18062;48.872;9.220;2022-09-09T14:19:55;651.78;;;604.35;;
31438;SDS011;18062;48.872;9.220;2022-09-09T14:22:21;628.42;;;585.63;;
31438;SDS011;18062;48.872;9.220;2022-09-09T14:24:47;611.58;;;569.22;;
31438;SDS011;18062;48.872;9.220;2022-09-09T14:27:14;634.85;;;593.17;;
31438;SDS011;18062;48.872;9.220;2022-09-09T14:29:40;637.13;;;594.90;;
31438;SDS011;18062;48.872;9.220;2022-09-09T14:32:08;614.38;;;572.80;;
31438;SDS011;18062;48.872;9.220;2022-09-09T14:34:34;666.80;;;619.92;;
31438;SDS011;18062;48.872;9.220;2022-09-09T14:37:00;741.92;;;689.38;;
31438;SDS011;18062;48.872;9.220;2022-09-09T14:39:26;731.83;;;681.50;;
31438;SDS011;18062;48.872;9.220;2022-09-09T14:41:53;769.40;;;712.45;;
31438;SDS011;18062;48.872;9.220;2022-09-09T14:44:19;761.55;;;706.22;;
31438;SDS011;18062;48.872;9.220;2022-09-09T14:46:45;735.67;;;681.75;;
31438;SDS011;18062;48.872;9.220;2022-09-09T14:49:10;634.25;;;591.28;;
31438;SDS011;18062;48.872;9.220;2022-09-09T14:51:37;513.53;;;477.08;;
31438;SDS011;18062;48.872;9.220;2022-09-09T14:54:06;361.92;;;335.17;;
31438;SDS011;18062;48.872;9.220;2022-09-09T14:56:32;252.65;;;235.35;;
31438;SDS011;18062;48.872;9.220;2022-09-09T14:59:01;195.75;;;182.65;;
31438;SDS011;18062;48.872;9.220;2022-09-09T15:01:28;91.65;;;86.50;;
31438;SDS011;18062;48.872;9.220;2022-09-09T15:03:56;68.43;;;64.63;;
31438;SDS011;18062;48.872;9.220;2022-09-09T15:06:23;46.83;;;44.33;;
31438;SDS011;18062;48.872;9.220;2022-09-09T15:08:50;38.78;;;36.83;;
31438;SDS011;18062;48.872;9.220;2022-09-09T15:11:17;35.70;;;33.65;;
31438;SDS011;18062;48.872;9.220;2022-09-09T15:13:43;35.05;;;33.20;;
31438;SDS011;18062;48.872;9.220;2022-09-09T15:16:11;27.33;;;25.98;;
31438;SDS011;18062;48.872;9.220;2022-09-09T15:18:37;52.83;;;49.85;;
31438;SDS011;18062;48.872;9.220;2022-09-09T15:21:17;45.88;;;43.58;;
31438;SDS011;18062;48.872;9.220;2022-09-09T15:23:44;41.78;;;39.60;;
31438;SDS011;18062;48.872;9.220;2022-09-09T15:26:10;32.85;;;31.10;;
31438;SDS011;18062;48.872;9.220;2022-09-09T15:28:39;26.15;;;24.90;;
31438;SDS011;18062;48.872;9.220;2022-09-09T15:31:15;23.73;;;22.45;;
31438;SDS011;18062;48.872;9.220;2022-09-09T15:36:17;28.80;;;27.33;;
31438;SDS011;18062;48.872;9.220;2022-09-09T15:38:44;31.92;;;30.02;;
31438;SDS011;18062;48.872;9.220;2022-09-09T15:41:10;22.63;;;21.48;;
31438;SDS011;18062;48.872;9.220;2022-09-09T15:43:37;26.05;;;24.60;;
31438;SDS011;18062;48.872;9.220;2022-09-09T15:46:21;22.80;;;21.63;;
31438;SDS011;18062;48.872;9.220;2022-09-09T15:48:52;33.05;;;31.40;;
31438;SDS011;18062;48.872;9.220;2022-09-09T15:51:19;26.90;;;25.65;;
31438;SDS011;18062;48.872;9.220;2022-09-09T15:53:45;21.38;;;20.38;;
31438;SDS011;18062;48.872;9.220;2022-09-09T15:56:11;27.80;;;26.25;;
31438;SDS011;18062;48.872;9.220;2022-09-09T15:58:37;19.67;;;18.52;;
31438;SDS011;18062;48.872;9.220;2022-09-09T16:01:04;13.95;;;13.30;;
31438;SDS011;18062;48.872;9.220;2022-09-09T16:03:34;16.30;;;15.43;;
31438;SDS011;18062;48.872;9.220;2022-09-09T16:06:00;10.53;;;10.03;;
31438;SDS011;18062;48.872;9.220;2022-09-09T16:08:33;9.77;;;9.33;;
31438;SDS011;18062;48.872;9.220;2022-09-09T16:11:06;14.33;;;13.63;;
31438;SDS011;18062;48.872;9.220;2022-09-09T16:13:35;13.77;;;13.13;;
31438;SDS011;18062;48.872;9.220;2022-09-09T16:16:02;8.10;;;7.73;;
31438;SDS011;18062;48.872;9.220;2022-09-09T16:18:33;10.60;;;10.03;;
31438;SDS011;18062;48.872;9.220;2022-09-09T16:20:59;11.87;;;11.30;;
31438;SDS011;18062;48.872;9.220;2022-09-09T16:23:26;8.35;;;7.95;;
31438;SDS011;18062;48.872;9.220;2022-09-09T16:25:53;15.57;;;14.30;;
31438;SDS011;18062;48.872;9.220;2022-09-09T16:28:19;9.07;;;8.63;;
31438;SDS011;18062;48.872;9.220;2022-09-09T16:30:45;9.70;;;9.23;;
31438;SDS011;18062;48.872;9.220;2022-09-09T16:33:11;13.67;;;12.83;;
31438;SDS011;18062;48.872;9.220;2022-09-09T16:35:39;14.17;;;13.43;;